createdAt,value
2022-11-07T00:01:41.837Z,13.40
2022-11-07T00:04:09.122Z,13.40
2022-11-07T00:06:37.801Z,13.40
2022-11-07T00:09:05.306Z,13.30
2022-11-07T00:11:32.582Z,13.30
2022-11-07T00:13:59.751Z,13.30
2022-11-07T00:19:10.585Z,13.20
2022-11-07T00:21:39.656Z,13.20
2022-11-07T00:24:08.033Z,13.20
2022-11-07T00:26:36.273Z,13.20
2022-11-07T00:29:05.225Z,13.20
2022-11-07T00:31:32.641Z,13.20
2022-11-07T00:34:00.038Z,13.20
2022-11-07T00:36:28.773Z,13.20
2022-11-07T00:38:56.413Z,13.20
2022-11-07T00:41:24.071Z,13.20
2022-11-07T00:43:51.503Z,13.30
2022-11-07T00:46:19.749Z,13.30
2022-11-07T00:48:47.566Z,13.30
2022-11-07T00:51:24.243Z,13.30
2022-11-07T00:53:51.633Z,13.40
2022-11-07T00:56:24.987Z,13.40
2022-11-07T00:58:57.083Z,13.40
2022-11-07T01:01:30.221Z,13.40
2022-11-07T01:04:16.512Z,13.40
2022-11-07T01:06:45.075Z,13.50
2022-11-07T01:09:15.536Z,13.50
2022-11-07T01:11:43.652Z,13.50
2022-11-07T01:14:12.483Z,13.60
2022-11-07T01:16:40.023Z,13.60
2022-11-07T01:19:07.438Z,13.60
2022-11-07T01:21:36.744Z,13.60
2022-11-07T01:26:49.493Z,13.70
2022-11-07T01:29:18.692Z,13.70
2022-11-07T01:31:45.912Z,13.70
2022-11-07T01:34:13.131Z,13.70
2022-11-07T01:36:40.464Z,13.80
2022-11-07T01:39:07.703Z,13.80
2022-11-07T01:41:36.935Z,13.80
2022-11-07T01:44:06.995Z,13.80
2022-11-07T01:46:37.038Z,13.80
2022-11-07T01:49:28.698Z,13.90
2022-11-07T01:52:06.335Z,13.90
2022-11-07T01:54:56.249Z,13.90
2022-11-07T01:57:29.541Z,13.90
2022-11-07T02:00:02.109Z,13.90
2022-11-07T02:02:33.052Z,13.90
2022-11-07T02:05:02.628Z,13.90
2022-11-07T02:07:30.329Z,14.00
2022-11-07T02:09:57.807Z,13.90
2022-11-07T02:12:26.728Z,14.00
2022-11-07T02:14:55.599Z,14.00
2022-11-07T02:17:22.977Z,14.10
2022-11-07T02:19:53.038Z,14.10
2022-11-07T02:22:52.185Z,14.10
2022-11-07T02:25:20.477Z,14.10
2022-11-07T02:27:51.925Z,14.10
2022-11-07T02:30:22.358Z,14.20
2022-11-07T02:32:50.137Z,14.20
2022-11-07T02:35:40.411Z,14.20
2022-11-07T02:38:31.197Z,14.20
2022-11-07T02:41:02.077Z,14.20
2022-11-07T02:43:31.870Z,14.30
2022-11-07T02:46:02.456Z,14.30
2022-11-07T02:48:45.737Z,14.30
2022-11-07T02:51:13.617Z,14.30
2022-11-07T02:53:41.018Z,14.30
2022-11-07T02:56:09.258Z,14.30
2022-11-07T02:58:37.178Z,14.30
2022-11-07T03:01:12.526Z,14.30
2022-11-07T03:03:42.678Z,14.20
2022-11-07T03:06:12.597Z,14.30
2022-11-07T03:08:40.037Z,14.30
2022-11-07T03:11:08.018Z,14.30
2022-11-07T03:13:35.460Z,14.30
2022-11-07T03:16:07.177Z,14.30
2022-11-07T03:18:34.988Z,14.30
2022-11-07T03:21:02.498Z,14.30
2022-11-07T03:23:30.337Z,14.30
2022-11-07T03:25:57.988Z,14.30
2022-11-07T03:28:25.298Z,14.30
2022-11-07T03:30:52.941Z,14.30
2022-11-07T03:33:20.471Z,14.30
2022-11-07T03:35:47.678Z,14.40
2022-11-07T03:38:14.959Z,14.40
2022-11-07T03:40:42.220Z,14.40
2022-11-07T03:43:09.497Z,14.40
2022-11-07T03:45:36.717Z,14.40
2022-11-07T03:48:04.128Z,14.40
2022-11-07T03:50:31.368Z,14.40
2022-11-07T03:52:58.657Z,14.40
2022-11-07T03:55:25.877Z,14.30
2022-11-07T03:57:53.158Z,14.30
2022-11-07T04:00:20.537Z,14.20
2022-11-07T04:02:47.981Z,14.20
2022-11-07T04:05:15.348Z,14.20
2022-11-07T04:07:42.640Z,14.20
2022-11-07T04:10:09.983Z,14.20
2022-11-07T04:12:56.197Z,14.20
2022-11-07T04:15:42.470Z,14.20
2022-11-07T04:18:09.797Z,14.20
2022-11-07T04:20:37.051Z,14.20
2022-11-07T04:23:04.378Z,14.20
2022-11-07T04:25:49.999Z,14.10
2022-11-07T04:28:18.109Z,14.10
2022-11-07T04:30:45.447Z,14.10
2022-11-07T04:33:12.933Z,14.10
2022-11-07T04:35:40.457Z,14.10
2022-11-07T04:38:07.717Z,14.10
2022-11-07T04:40:35.161Z,14.10
2022-11-07T04:43:09.150Z,14.20
2022-11-07T04:45:37.556Z,14.10
2022-11-07T04:48:05.632Z,14.20
2022-11-07T04:50:32.998Z,14.20
2022-11-07T04:53:00.275Z,14.20
2022-11-07T04:55:30.845Z,14.20
2022-11-07T04:57:58.699Z,14.30
2022-11-07T05:00:26.017Z,14.30
2022-11-07T05:02:53.430Z,14.30
2022-11-07T05:05:21.126Z,14.30
2022-11-07T05:07:48.676Z,14.30
2022-11-07T05:10:23.127Z,14.30
2022-11-07T05:12:50.629Z,14.20
2022-11-07T05:15:18.160Z,14.20
2022-11-07T05:17:46.108Z,14.30
2022-11-07T05:20:32.417Z,14.30
2022-11-07T05:23:16.348Z,14.30
2022-11-07T05:25:50.360Z,14.20
2022-11-07T05:28:29.944Z,14.20
2022-11-07T05:31:00.816Z,14.20
2022-11-07T05:33:28.947Z,14.20
2022-11-07T05:35:56.217Z,14.20
2022-11-07T05:38:23.436Z,14.20
2022-11-07T05:40:50.798Z,14.10
2022-11-07T05:43:18.331Z,14.10
2022-11-07T05:45:45.831Z,14.10
2022-11-07T05:48:14.289Z,14.00
2022-11-07T05:50:42.058Z,14.00
2022-11-07T05:53:09.520Z,14.00
2022-11-07T05:55:37.006Z,14.00
2022-11-07T05:58:14.057Z,14.00
2022-11-07T06:00:41.959Z,14.00
2022-11-07T06:03:09.315Z,13.90
2022-11-07T06:05:39.241Z,13.90
2022-11-07T06:08:08.038Z,13.90
2022-11-07T06:10:37.516Z,13.90
2022-11-07T06:13:07.229Z,13.90
2022-11-07T06:15:36.458Z,13.90
2022-11-07T06:18:05.217Z,13.90
2022-11-07T06:20:33.706Z,13.90
2022-11-07T06:23:02.620Z,13.90
2022-11-07T06:25:30.835Z,13.90
2022-11-07T06:28:03.777Z,13.90
2022-11-07T06:30:32.066Z,13.90
2022-11-07T06:33:07.366Z,13.80
2022-11-07T06:35:35.236Z,13.80
2022-11-07T06:38:04.566Z,13.80
2022-11-07T06:40:32.123Z,13.80
2022-11-07T06:43:07.499Z,13.90
2022-11-07T06:45:35.348Z,13.90
2022-11-07T06:48:02.657Z,13.90
2022-11-07T06:50:30.071Z,13.90
2022-11-07T06:53:02.135Z,13.90
2022-11-07T06:55:29.676Z,14.00
2022-11-07T06:58:01.158Z,13.90
2022-11-07T07:00:34.249Z,13.90
2022-11-07T07:03:01.700Z,13.90
2022-11-07T07:05:29.027Z,13.90
2022-11-07T07:07:56.671Z,13.90
2022-11-07T07:10:25.487Z,14.00
2022-11-07T07:12:56.807Z,14.00
2022-11-07T07:15:24.723Z,14.00
2022-11-07T07:17:51.939Z,14.00
2022-11-07T07:20:19.256Z,14.00
2022-11-07T07:22:49.167Z,14.00
2022-11-07T07:25:20.617Z,14.10
2022-11-07T07:27:48.397Z,14.10
2022-11-07T07:30:16.117Z,14.20
2022-11-07T07:32:43.408Z,14.20
2022-11-07T07:35:10.978Z,14.10
2022-11-07T07:37:38.540Z,14.10
2022-11-07T07:40:06.239Z,14.00
2022-11-07T07:42:33.610Z,14.00
2022-11-07T07:45:00.940Z,14.00
2022-11-07T07:47:28.219Z,14.00
2022-11-07T07:49:55.569Z,14.00
2022-11-07T07:52:22.839Z,14.10
2022-11-07T07:54:50.201Z,14.10
2022-11-07T07:57:17.610Z,14.10
2022-11-07T07:59:44.930Z,14.20
2022-11-07T08:02:12.819Z,14.10
2022-11-07T08:04:43.570Z,14.10
2022-11-07T08:07:11.065Z,14.10
2022-11-07T08:09:38.374Z,14.10
2022-11-07T08:12:11.847Z,14.10
2022-11-07T08:14:39.220Z,14.10
2022-11-07T08:17:06.509Z,14.10
2022-11-07T08:19:33.951Z,14.10
2022-11-07T08:22:01.225Z,14.20
2022-11-07T08:24:28.670Z,14.30
2022-11-07T08:26:56.454Z,14.30
2022-11-07T08:29:23.861Z,14.40
2022-11-07T08:31:51.169Z,14.50
2022-11-07T08:34:18.919Z,14.50
2022-11-07T08:36:46.260Z,14.50
2022-11-07T08:39:13.569Z,14.60
2022-11-07T08:44:22.041Z,14.80
2022-11-07T08:46:49.381Z,14.90
2022-11-07T08:49:16.772Z,15.00
2022-11-07T08:51:44.260Z,15.10
2022-11-07T08:54:14.542Z,15.10
2022-11-07T08:56:41.781Z,15.20
2022-11-07T08:59:10.940Z,15.10
2022-11-07T09:01:56.069Z,15.10
2022-11-07T09:04:25.658Z,15.20
2022-11-07T09:06:53.013Z,15.20
2022-11-07T09:09:20.312Z,15.20
2022-11-07T09:11:47.591Z,15.30
2022-11-07T09:14:14.981Z,15.40
2022-11-07T09:16:42.250Z,15.60
2022-11-07T09:19:09.622Z,15.70
2022-11-07T09:21:36.930Z,15.60
2022-11-07T09:24:04.641Z,15.60
2022-11-07T09:26:32.079Z,15.60
2022-11-07T09:29:01.311Z,15.70
2022-11-07T09:31:29.000Z,15.80
2022-11-07T09:33:56.330Z,15.90
2022-11-07T09:36:24.466Z,15.90
2022-11-07T09:38:51.934Z,16.00
2022-11-07T09:41:34.449Z,16.10
2022-11-07T09:44:27.950Z,16.20
2022-11-07T09:47:17.392Z,16.30
2022-11-07T09:49:48.450Z,16.40
2022-11-07T09:52:55.288Z,16.40
2022-11-07T09:55:35.821Z,16.40
2022-11-07T09:58:11.873Z,16.40
2022-11-07T10:00:40.398Z,16.40
2022-11-07T10:03:10.040Z,16.40
2022-11-07T10:05:48.520Z,16.50
2022-11-07T10:08:29.780Z,16.50
2022-11-07T10:11:09.540Z,16.50
2022-11-07T10:13:52.069Z,16.70
2022-11-07T10:16:31.209Z,16.70
2022-11-07T10:19:36.931Z,16.70
2022-11-07T10:22:25.670Z,16.70
2022-11-07T10:25:04.850Z,16.70
2022-11-07T10:27:33.125Z,16.80
2022-11-07T10:30:01.650Z,16.90
2022-11-07T10:32:34.939Z,17.20
2022-11-07T10:35:31.720Z,17.60
2022-11-07T10:38:01.599Z,17.90
2022-11-07T10:40:36.229Z,18.30
2022-11-07T10:43:08.472Z,18.50
2022-11-07T10:45:39.379Z,18.70
2022-11-07T10:48:07.082Z,18.60
2022-11-07T10:50:34.429Z,18.60
2022-11-07T10:53:09.915Z,18.70
2022-11-07T10:55:45.979Z,18.90
2022-11-07T10:58:34.219Z,19.10
2022-11-07T11:01:07.974Z,19.20
2022-11-07T11:03:47.114Z,19.40
2022-11-07T11:06:23.200Z,19.50
2022-11-07T11:08:52.533Z,19.50
2022-11-07T11:11:30.900Z,19.50
2022-11-07T11:14:13.632Z,19.50
2022-11-07T11:16:43.199Z,19.60
2022-11-07T11:19:26.862Z,19.70
2022-11-07T11:21:58.799Z,19.70
2022-11-07T11:24:32.243Z,19.80
2022-11-07T11:27:08.051Z,19.90
2022-11-07T11:33:01.169Z,19.70
2022-11-07T11:35:41.669Z,19.60
2022-11-07T11:38:22.702Z,19.60
2022-11-07T11:41:04.615Z,19.60
2022-11-07T11:44:08.380Z,19.60
2022-11-07T11:46:57.972Z,19.70
2022-11-07T11:49:43.762Z,19.70
2022-11-07T11:52:22.701Z,19.80
2022-11-07T11:54:55.780Z,19.90
2022-11-07T11:57:36.619Z,19.90
2022-11-07T12:00:21.801Z,19.90
2022-11-07T12:03:16.635Z,19.90
2022-11-07T12:06:10.895Z,19.90
2022-11-07T12:08:51.863Z,19.90
2022-11-07T12:11:34.989Z,19.90
2022-11-07T12:17:32.121Z,19.80
2022-11-07T12:20:25.221Z,19.80
2022-11-07T12:23:15.762Z,19.90
2022-11-07T12:25:59.230Z,19.90
2022-11-07T12:28:45.859Z,19.90
2022-11-07T12:31:28.171Z,19.90
2022-11-07T12:34:22.770Z,19.90
2022-11-07T12:37:03.035Z,20.00
2022-11-07T12:42:59.889Z,20.00
2022-11-07T12:45:55.112Z,20.00
2022-11-07T12:48:48.704Z,20.10
2022-11-07T12:51:58.920Z,20.00
2022-11-07T12:54:33.802Z,20.00
2022-11-07T12:57:06.269Z,20.00
2022-11-07T12:59:36.521Z,20.00
2022-11-07T13:02:31.420Z,20.00
2022-11-07T13:05:03.903Z,20.00
2022-11-07T13:07:51.161Z,19.90
2022-11-07T13:10:42.330Z,19.80
2022-11-07T13:13:32.372Z,19.80
2022-11-07T13:16:23.650Z,19.90
2022-11-07T13:21:43.610Z,19.90
2022-11-07T13:24:22.531Z,19.90
2022-11-07T13:26:49.909Z,19.90
2022-11-07T13:29:24.984Z,19.90
2022-11-07T13:32:14.006Z,19.90
2022-11-07T13:34:51.288Z,19.90
2022-11-07T13:37:43.601Z,19.90
2022-11-07T13:43:00.491Z,19.80
2022-11-07T13:45:41.801Z,19.80
2022-11-07T13:48:48.222Z,19.80
2022-11-07T13:51:25.521Z,19.80
2022-11-07T13:54:29.070Z,19.80
2022-11-07T13:57:20.956Z,19.80
2022-11-07T14:02:55.769Z,19.70
2022-11-07T14:05:27.282Z,19.70
2022-11-07T14:08:02.411Z,19.60
2022-11-07T14:10:39.057Z,19.60
2022-11-07T14:13:11.112Z,19.60
2022-11-07T14:15:48.433Z,19.60
2022-11-07T14:18:21.441Z,19.60
2022-11-07T14:23:33.820Z,19.50
2022-11-07T14:26:04.470Z,19.40
2022-11-07T14:28:37.371Z,19.40
2022-11-07T14:31:32.406Z,19.30
2022-11-07T14:34:13.486Z,19.30
2022-11-07T14:36:59.541Z,19.20
2022-11-07T14:39:30.571Z,19.20
2022-11-07T14:42:00.021Z,19.10
2022-11-07T14:44:55.268Z,19.10
2022-11-07T14:47:30.547Z,19.00
2022-11-07T14:53:01.922Z,19.00
2022-11-07T14:55:35.303Z,19.10
2022-11-07T14:58:05.387Z,19.10
2022-11-07T15:00:35.471Z,19.10
2022-11-07T15:03:03.112Z,19.10
2022-11-07T15:05:31.539Z,19.00
2022-11-07T15:08:00.242Z,19.00
2022-11-07T15:10:32.282Z,18.90
2022-11-07T15:13:05.432Z,18.90
2022-11-07T15:15:34.910Z,18.90
2022-11-07T15:20:56.352Z,18.70
2022-11-07T15:23:23.733Z,18.70
2022-11-07T15:26:00.422Z,18.60
2022-11-07T15:28:44.322Z,18.50
2022-11-07T15:31:28.094Z,18.50
2022-11-07T15:33:59.556Z,18.40
2022-11-07T15:39:28.672Z,18.30
2022-11-07T15:41:56.101Z,18.30
2022-11-07T15:47:05.683Z,18.20
2022-11-07T15:49:34.371Z,18.20
2022-11-07T15:52:02.195Z,18.10
2022-11-07T15:54:29.644Z,18.10
2022-11-07T15:57:00.663Z,18.10
2022-11-07T15:59:32.751Z,18.00
2022-11-07T16:02:01.421Z,18.00
2022-11-07T16:04:29.732Z,17.90
2022-11-07T16:06:57.641Z,17.90
2022-11-07T16:09:28.171Z,17.90
2022-11-07T16:11:55.630Z,17.80
2022-11-07T16:14:42.817Z,17.80
2022-11-07T16:17:14.691Z,17.70
2022-11-07T16:22:23.322Z,17.60
2022-11-07T16:24:50.741Z,17.50
2022-11-07T16:27:18.627Z,17.50
2022-11-07T16:29:46.430Z,17.40
2022-11-07T16:32:17.855Z,17.40
2022-11-07T16:34:46.768Z,17.30
2022-11-07T16:37:14.186Z,17.30
2022-11-07T16:39:41.634Z,17.20
2022-11-07T16:42:15.783Z,17.10
2022-11-07T16:44:43.327Z,17.10
2022-11-07T16:47:17.611Z,17.00
2022-11-07T16:55:18.471Z,16.80
2022-11-07T16:57:46.674Z,16.80
2022-11-07T17:00:23.015Z,16.80
2022-11-07T17:02:50.972Z,16.70
2022-11-07T17:05:19.012Z,16.60
2022-11-07T17:07:49.431Z,16.50
2022-11-07T17:10:41.561Z,16.50
2022-11-07T17:13:39.372Z,16.40
2022-11-07T17:16:48.801Z,16.30
2022-11-07T17:19:43.034Z,16.30
2022-11-07T17:22:47.421Z,16.30
2022-11-07T17:28:59.804Z,16.20
2022-11-07T17:31:45.271Z,16.10
2022-11-07T17:35:18.190Z,16.10
2022-11-07T17:40:55.092Z,15.90
2022-11-07T17:43:22.650Z,15.90
2022-11-07T17:46:01.552Z,15.90
2022-11-07T17:48:32.112Z,15.90
2022-11-07T17:51:37.052Z,15.80
2022-11-07T17:54:29.262Z,15.80
2022-11-07T17:57:05.832Z,15.70
2022-11-07T17:59:33.301Z,15.70
2022-11-07T18:02:46.923Z,15.60
2022-11-07T18:05:55.040Z,15.60
2022-11-07T18:08:52.559Z,15.60
2022-11-07T18:12:03.033Z,15.60
2022-11-07T18:21:39.134Z,15.40
2022-11-07T18:26:51.133Z,15.30
2022-11-07T18:29:18.681Z,15.30
2022-11-07T18:31:50.849Z,15.20
2022-11-07T18:34:18.555Z,15.20
2022-11-07T18:36:46.440Z,15.20
2022-11-07T18:39:21.787Z,15.20
2022-11-07T18:41:50.910Z,15.20
2022-11-07T18:44:19.311Z,15.20
2022-11-07T18:46:47.422Z,15.20
2022-11-07T18:49:15.740Z,15.20
2022-11-07T18:51:44.159Z,15.20
2022-11-07T18:54:14.051Z,15.20
2022-11-07T18:56:43.078Z,15.20
2022-11-07T18:59:10.895Z,15.20
2022-11-07T19:01:38.821Z,15.20
2022-11-07T19:04:07.721Z,15.20
2022-11-07T19:06:35.195Z,15.20
2022-11-07T19:09:17.801Z,15.20
2022-11-07T19:11:45.231Z,15.20
2022-11-07T19:14:12.569Z,15.20
2022-11-07T19:16:40.950Z,15.20
2022-11-07T19:19:08.420Z,15.20
2022-11-07T19:21:37.380Z,15.20
2022-11-07T19:24:21.791Z,15.20
2022-11-07T19:26:55.134Z,15.20
2022-11-07T19:29:22.590Z,15.10
2022-11-07T19:31:49.992Z,15.10
2022-11-07T19:34:18.301Z,15.10
2022-11-07T19:36:52.318Z,15.00
2022-11-07T19:39:20.027Z,15.10
2022-11-07T19:41:47.382Z,15.00
2022-11-07T19:44:14.977Z,15.00
2022-11-07T19:46:42.428Z,15.00
2022-11-07T19:49:09.879Z,15.00
2022-11-07T19:51:37.678Z,15.00
2022-11-07T19:54:07.188Z,14.90
2022-11-07T19:56:34.589Z,14.90
2022-11-07T19:59:02.139Z,14.90
2022-11-07T20:01:31.867Z,14.90
2022-11-07T20:04:00.060Z,14.80
2022-11-07T20:06:33.387Z,14.90
2022-11-07T20:09:01.627Z,14.90
2022-11-07T20:11:29.070Z,14.90
2022-11-07T20:14:02.703Z,14.90
2022-11-07T20:16:31.479Z,14.90
2022-11-07T20:18:58.878Z,14.90
2022-11-07T20:21:26.439Z,14.90
2022-11-07T20:23:57.345Z,14.90
2022-11-07T20:26:26.870Z,14.90
2022-11-07T20:28:54.402Z,15.00
2022-11-07T20:31:25.568Z,14.90
2022-11-07T20:33:54.309Z,15.00
2022-11-07T20:36:21.718Z,15.00
2022-11-07T20:38:49.217Z,15.00
2022-11-07T20:41:16.999Z,14.90
2022-11-07T20:43:44.438Z,15.00
2022-11-07T20:46:15.232Z,15.00
2022-11-07T20:48:43.400Z,15.00
2022-11-07T20:51:16.638Z,15.00
2022-11-07T20:53:49.779Z,15.00
2022-11-07T20:56:18.099Z,15.00
2022-11-07T20:58:46.751Z,14.90
2022-11-07T21:01:21.181Z,14.90
2022-11-07T21:03:49.534Z,14.90
2022-11-07T21:06:18.260Z,14.90
2022-11-07T21:08:48.198Z,14.90
2022-11-07T21:11:16.518Z,14.90
2022-11-07T21:13:51.208Z,14.80
2022-11-07T21:16:21.953Z,14.90
2022-11-07T21:18:50.595Z,14.80
2022-11-07T21:21:24.139Z,14.80
2022-11-07T21:23:52.506Z,14.80
2022-11-07T21:26:31.869Z,14.70
2022-11-07T21:29:00.328Z,14.70
2022-11-07T21:31:29.999Z,14.80
2022-11-07T21:33:57.979Z,14.80
2022-11-07T21:36:30.658Z,14.80
2022-11-07T21:39:00.119Z,14.80
2022-11-07T21:41:29.081Z,14.80
2022-11-07T21:43:57.968Z,14.90
2022-11-07T21:46:28.300Z,14.90
2022-11-07T21:48:56.989Z,14.90
2022-11-07T21:51:27.002Z,14.90
2022-11-07T21:53:55.570Z,14.90
2022-11-07T21:56:28.330Z,14.90
2022-11-07T21:58:59.131Z,14.90
2022-11-07T22:04:12.459Z,15.00
2022-11-07T22:09:24.469Z,15.10
2022-11-07T22:11:51.850Z,15.10
2022-11-07T22:14:21.458Z,15.10
2022-11-07T22:16:50.318Z,15.10
2022-11-07T22:19:18.838Z,15.10
2022-11-07T22:24:27.855Z,15.00
2022-11-07T22:26:56.058Z,15.10
2022-11-07T22:29:23.948Z,15.10
2022-11-07T22:31:51.398Z,15.10
2022-11-07T22:34:18.818Z,15.20
2022-11-07T22:36:46.168Z,15.20
2022-11-07T22:39:13.827Z,15.30
2022-11-07T22:41:41.198Z,15.20
2022-11-07T22:46:49.793Z,15.30
2022-11-07T22:49:17.131Z,15.20
2022-11-07T22:51:44.578Z,15.20
2022-11-07T22:54:13.639Z,15.20
2022-11-07T22:56:41.430Z,15.20
2022-11-07T22:59:10.497Z,15.30
2022-11-07T23:01:40.618Z,15.30
2022-11-07T23:04:12.528Z,15.20
2022-11-07T23:06:39.948Z,15.20
2022-11-07T23:09:07.401Z,15.20
2022-11-07T23:11:51.671Z,15.20
2022-11-07T23:14:21.497Z,15.20
2022-11-07T23:16:51.991Z,15.10
2022-11-07T23:19:22.331Z,15.10
2022-11-07T23:21:51.075Z,15.10
2022-11-07T23:24:19.172Z,15.10
2022-11-07T23:26:47.143Z,15.10
2022-11-07T23:29:20.650Z,15.00
2022-11-07T23:31:51.256Z,15.00
2022-11-07T23:34:20.405Z,14.90
2022-11-07T23:36:50.791Z,15.00
2022-11-07T23:39:20.591Z,15.00
2022-11-07T23:41:48.020Z,14.90
2022-11-07T23:44:15.978Z,14.90
2022-11-07T23:47:02.417Z,14.90
2022-11-07T23:49:48.732Z,14.80
2022-11-07T23:52:17.050Z,14.80
2022-11-07T23:55:03.061Z,14.80
2022-11-07T23:57:33.841Z,14.80
